createdAt,value
2019-05-14T00:00:32.227Z,12.60
2019-05-14T00:03:02.317Z,12.60
2019-05-14T00:05:32.215Z,12.50
2019-05-14T00:08:02.263Z,12.40
2019-05-14T00:10:32.237Z,12.40
2019-05-14T00:13:03.640Z,12.30
2019-05-14T00:15:32.371Z,12.20
2019-05-14T00:18:01.293Z,12.20
2019-05-14T00:20:31.394Z,12.20
2019-05-14T00:23:01.430Z,12.00
2019-05-14T00:25:31.308Z,11.90
2019-05-14T00:28:01.400Z,11.90
2019-05-14T00:30:31.702Z,11.80
2019-05-14T00:33:01.193Z,11.80
2019-05-14T00:35:32.023Z,11.80
2019-05-14T00:38:01.300Z,11.70
2019-05-14T00:40:31.452Z,11.80
2019-05-14T00:43:02.449Z,11.70
2019-05-14T00:45:31.323Z,11.70
2019-05-14T00:48:01.449Z,11.80
2019-05-14T00:50:31.688Z,11.80
2019-05-14T00:53:01.996Z,11.80
2019-05-14T00:55:31.629Z,11.80
2019-05-14T00:58:02.347Z,11.80
2019-05-14T01:00:31.355Z,11.90
2019-05-14T01:03:02.009Z,11.90
2019-05-14T01:05:32.178Z,11.90
2019-05-14T01:08:01.881Z,11.90
2019-05-14T01:10:31.360Z,12.00
2019-05-14T01:13:01.204Z,12.00
2019-05-14T01:15:32.074Z,12.00
2019-05-14T01:18:02.210Z,12.00
2019-05-14T01:20:31.942Z,11.90
2019-05-14T01:23:02.217Z,11.90
2019-05-14T01:25:31.745Z,11.90
2019-05-14T01:28:02.098Z,11.80
2019-05-14T01:30:31.987Z,11.80
2019-05-14T01:33:01.734Z,11.80
2019-05-14T01:35:31.550Z,11.80
2019-05-14T01:38:02.421Z,11.70
2019-05-14T01:40:31.535Z,11.70
2019-05-14T01:43:02.406Z,11.70
2019-05-14T01:45:31.695Z,11.60
2019-05-14T01:48:01.189Z,11.60
2019-05-14T01:50:32.045Z,11.50
2019-05-14T01:53:01.264Z,11.50
2019-05-14T01:55:32.323Z,11.40
2019-05-14T01:58:02.110Z,11.40
2019-05-14T02:00:31.419Z,11.30
2019-05-14T02:03:01.854Z,11.20
2019-05-14T02:05:31.087Z,11.10
2019-05-14T02:08:01.823Z,11.00
2019-05-14T02:10:31.532Z,10.90
2019-05-14T02:13:01.943Z,10.80
2019-05-14T02:15:39.626Z,10.70
2019-05-14T02:18:02.283Z,10.60
2019-05-14T02:20:32.183Z,10.60
2019-05-14T02:23:01.535Z,10.50
2019-05-14T02:25:32.038Z,10.40
2019-05-14T02:28:01.377Z,10.30
2019-05-14T02:30:45.771Z,10.30
2019-05-14T02:33:00.258Z,10.20
2019-05-14T02:35:29.717Z,10.20
2019-05-14T02:37:59.546Z,10.10
2019-05-14T02:40:29.495Z,10.10
2019-05-14T02:42:59.301Z,10.10
2019-05-14T02:45:30.269Z,10.00
2019-05-14T02:48:00.251Z,10.00
2019-05-14T02:50:29.520Z,10.00
2019-05-14T02:52:59.858Z,10.00
2019-05-14T02:55:29.910Z,10.00
2019-05-14T02:57:59.870Z,10.00
2019-05-14T03:00:30.204Z,10.00
2019-05-14T03:02:59.799Z,10.00
2019-05-14T03:05:29.582Z,9.90
2019-05-14T03:07:59.813Z,9.90
2019-05-14T03:10:30.203Z,9.90
2019-05-14T03:12:59.226Z,9.90
2019-05-14T03:15:29.090Z,9.90
2019-05-14T03:18:00.023Z,10.00
2019-05-14T03:20:28.855Z,10.00
2019-05-14T03:23:06.651Z,10.00
2019-05-14T03:25:30.180Z,10.00
2019-05-14T03:27:59.927Z,10.10
2019-05-14T03:30:32.541Z,10.10
2019-05-14T03:33:02.638Z,10.20
2019-05-14T03:35:40.183Z,10.20
2019-05-14T03:38:00.398Z,10.20
2019-05-14T03:40:29.559Z,10.20
2019-05-14T03:42:59.950Z,10.20
2019-05-14T03:45:29.985Z,10.10
2019-05-14T03:47:59.003Z,10.10
2019-05-14T03:50:29.697Z,10.10
2019-05-14T03:52:59.393Z,10.00
2019-05-14T03:55:29.245Z,9.90
2019-05-14T03:57:59.395Z,9.90
2019-05-14T04:00:49.985Z,9.80
2019-05-14T04:03:20.058Z,9.70
2019-05-14T04:05:49.740Z,9.70
2019-05-14T04:08:21.486Z,9.60
2019-05-14T04:10:54.044Z,9.70
2019-05-14T04:13:22.929Z,9.60
2019-05-14T04:15:54.560Z,9.70
2019-05-14T04:18:28.958Z,9.70
2019-05-14T04:20:59.311Z,9.70
2019-05-14T04:23:29.815Z,9.70
2019-05-14T04:26:00.706Z,9.80
2019-05-14T04:28:32.075Z,9.80
2019-05-14T04:31:00.883Z,9.90
2019-05-14T04:33:30.549Z,10.00
2019-05-14T04:36:00.131Z,10.00
2019-05-14T04:38:29.868Z,10.10
2019-05-14T04:40:59.897Z,10.10
2019-05-14T04:43:29.622Z,10.30
2019-05-14T04:45:59.185Z,10.30
2019-05-14T04:48:36.419Z,10.40
2019-05-14T04:51:00.457Z,10.60
2019-05-14T04:53:30.761Z,10.60
2019-05-14T04:56:00.069Z,10.70
2019-05-14T04:58:29.960Z,10.80
2019-05-14T05:01:00.699Z,10.90
2019-05-14T05:03:31.304Z,11.00
2019-05-14T05:05:59.221Z,11.20
2019-05-14T05:08:30.405Z,11.30
2019-05-14T05:10:59.999Z,11.40
2019-05-14T05:13:29.112Z,11.40
2019-05-14T05:15:59.338Z,11.50
2019-05-14T05:18:29.408Z,11.60
2019-05-14T05:20:58.555Z,11.70
2019-05-14T05:23:28.229Z,11.70
2019-05-14T05:25:58.548Z,11.80
2019-05-14T05:28:28.413Z,11.90
2019-05-14T05:30:58.526Z,12.00
2019-05-14T05:33:29.306Z,12.10
2019-05-14T05:35:59.365Z,12.20
2019-05-14T05:38:29.202Z,12.40
2019-05-14T05:41:00.258Z,12.50
2019-05-14T05:43:28.677Z,12.60
2019-05-14T05:45:59.284Z,12.70
2019-05-14T05:48:28.600Z,12.80
2019-05-14T05:50:59.168Z,12.90
2019-05-14T05:53:28.813Z,13.00
2019-05-14T05:55:59.294Z,13.20
2019-05-14T05:58:29.932Z,13.30
2019-05-14T06:00:59.136Z,13.30
2019-05-14T06:03:30.223Z,13.40
2019-05-14T06:05:59.327Z,13.50
2019-05-14T06:08:28.310Z,13.60
2019-05-14T06:10:59.227Z,13.60
2019-05-14T06:13:28.675Z,13.70
2019-05-14T06:15:59.111Z,13.70
2019-05-14T06:18:28.606Z,13.80
2019-05-14T06:20:58.506Z,13.80
2019-05-14T06:23:28.454Z,13.90
2019-05-14T06:25:59.828Z,14.00
2019-05-14T06:28:32.420Z,14.10
2019-05-14T06:30:59.036Z,14.10
2019-05-14T06:33:28.633Z,14.20
2019-05-14T06:35:59.171Z,14.20
2019-05-14T06:38:29.511Z,14.40
2019-05-14T06:40:59.265Z,14.50
2019-05-14T06:43:28.701Z,14.50
2019-05-14T06:45:58.529Z,14.70
2019-05-14T06:48:33.729Z,14.70
2019-05-14T06:50:58.234Z,14.90
2019-05-14T06:53:28.986Z,14.90
2019-05-14T06:55:58.775Z,15.00
2019-05-14T06:58:29.786Z,15.10
2019-05-14T07:00:58.953Z,15.20
2019-05-14T07:03:28.115Z,15.20
2019-05-14T07:05:59.379Z,15.20
2019-05-14T07:08:28.572Z,15.20
2019-05-14T07:10:59.235Z,15.30
2019-05-14T07:13:29.218Z,15.30
2019-05-14T07:15:58.500Z,15.30
2019-05-14T07:18:30.252Z,15.30
2019-05-14T07:20:58.859Z,15.30
2019-05-14T07:23:28.995Z,15.30
2019-05-14T07:25:58.914Z,15.40
2019-05-14T07:28:28.907Z,15.40
2019-05-14T07:30:59.418Z,15.50
2019-05-14T07:33:29.301Z,15.50
2019-05-14T07:35:59.340Z,15.60
2019-05-14T07:38:28.527Z,15.50
2019-05-14T07:40:58.548Z,15.60
2019-05-14T07:43:28.628Z,15.60
2019-05-14T07:45:58.231Z,15.70
2019-05-14T07:48:28.732Z,15.70
2019-05-14T07:50:59.656Z,15.70
2019-05-14T07:53:38.119Z,15.80
2019-05-14T07:55:59.211Z,15.90
2019-05-14T07:58:28.273Z,16.00
2019-05-14T08:00:58.562Z,16.00
2019-05-14T08:03:28.588Z,16.00
2019-05-14T08:05:58.811Z,16.10
2019-05-14T08:08:29.286Z,16.20
2019-05-14T08:10:59.190Z,16.30
2019-05-14T08:13:28.480Z,16.40
2019-05-14T08:15:58.395Z,16.50
2019-05-14T08:18:29.024Z,16.60
2019-05-14T08:20:59.157Z,16.60
2019-05-14T08:23:28.202Z,16.70
2019-05-14T08:25:58.653Z,16.80
2019-05-14T08:28:29.074Z,16.80
2019-05-14T08:30:58.489Z,16.90
2019-05-14T08:33:29.009Z,17.00
2019-05-14T08:35:58.206Z,17.10
2019-05-14T08:38:28.446Z,17.20
2019-05-14T08:40:58.987Z,17.30
2019-05-14T08:43:29.130Z,17.40
2019-05-14T08:45:58.765Z,17.50
2019-05-14T08:48:29.557Z,17.60
2019-05-14T08:50:58.783Z,17.60
2019-05-14T08:53:28.850Z,17.60
2019-05-14T08:55:58.815Z,17.60
2019-05-14T08:58:29.721Z,17.70
2019-05-14T09:00:58.811Z,17.70
2019-05-14T09:03:28.766Z,17.60
2019-05-14T09:06:00.538Z,17.60
2019-05-14T09:08:28.458Z,17.60
2019-05-14T09:10:58.993Z,17.60
2019-05-14T09:13:28.989Z,17.60
2019-05-14T09:15:58.254Z,17.60
2019-05-14T09:18:29.133Z,17.70
2019-05-14T09:20:58.261Z,17.80
2019-05-14T09:23:28.668Z,17.80
2019-05-14T09:25:58.903Z,17.90
2019-05-14T09:28:28.524Z,18.00
2019-05-14T09:30:59.644Z,18.10
2019-05-14T09:33:29.669Z,18.20
2019-05-14T09:36:13.155Z,18.20
2019-05-14T09:38:29.331Z,18.30
2019-05-14T09:41:10.670Z,18.30
2019-05-14T09:43:31.204Z,18.30
2019-05-14T09:45:59.674Z,18.30
2019-05-14T09:48:28.554Z,18.30
2019-05-14T09:50:58.593Z,18.20
2019-05-14T09:53:28.898Z,18.20
2019-05-14T09:55:58.381Z,18.20
2019-05-14T09:58:28.257Z,18.10
2019-05-14T10:00:59.055Z,18.00
2019-05-14T10:03:27.216Z,17.90
2019-05-14T10:05:58.731Z,17.80
2019-05-14T10:08:28.361Z,17.60
2019-05-14T10:10:56.233Z,17.50
2019-05-14T10:13:24.778Z,17.50
2019-05-14T10:15:53.257Z,17.50
2019-05-14T10:18:21.774Z,17.50
2019-05-14T10:20:50.261Z,17.50
2019-05-14T10:23:18.987Z,17.60
2019-05-14T10:25:47.574Z,17.60
2019-05-14T10:28:16.028Z,17.60
2019-05-14T10:30:44.652Z,17.60
2019-05-14T10:33:15.079Z,17.60
2019-05-14T10:35:43.836Z,17.70
2019-05-14T10:38:12.334Z,17.70
2019-05-14T10:40:40.892Z,17.70
2019-05-14T10:43:09.434Z,17.80
2019-05-14T10:45:38.459Z,17.80
2019-05-14T10:48:09.658Z,17.80
2019-05-14T10:50:54.006Z,17.90
2019-05-14T10:53:08.975Z,17.90
2019-05-14T10:55:38.623Z,17.90
2019-05-14T10:58:08.971Z,17.90
2019-05-14T11:00:41.496Z,18.00
2019-05-14T11:03:07.866Z,18.10
2019-05-14T11:05:41.279Z,18.10
2019-05-14T11:08:06.690Z,18.20
2019-05-14T11:10:41.872Z,18.20
2019-05-14T11:13:08.959Z,18.30
2019-05-14T11:15:39.503Z,18.30
2019-05-14T11:18:08.697Z,18.40
2019-05-14T11:20:41.735Z,18.40
2019-05-14T11:23:08.991Z,18.40
2019-05-14T11:25:38.337Z,18.50
2019-05-14T11:28:07.016Z,18.50
2019-05-14T11:30:35.463Z,18.50
2019-05-14T11:33:04.005Z,18.50
2019-05-14T11:35:32.529Z,18.60
2019-05-14T11:38:01.077Z,18.60
2019-05-14T11:40:29.592Z,18.60
2019-05-14T11:42:59.181Z,18.70
2019-05-14T11:45:28.172Z,18.70
2019-05-14T11:47:58.397Z,18.80
2019-05-14T11:50:28.739Z,18.80
2019-05-14T11:52:58.499Z,18.80
2019-05-14T11:55:27.330Z,18.70
2019-05-14T11:57:58.048Z,18.70
2019-05-14T12:00:29.171Z,18.70
2019-05-14T12:02:58.682Z,18.60
2019-05-14T12:05:26.758Z,18.50
2019-05-14T12:07:55.225Z,18.50
2019-05-14T12:10:23.687Z,18.50
2019-05-14T12:12:52.213Z,18.50
2019-05-14T12:15:20.662Z,18.50
2019-05-14T12:17:51.120Z,18.60
2019-05-14T12:20:19.670Z,18.60
2019-05-14T12:22:48.774Z,18.70
2019-05-14T12:25:18.829Z,18.70
2019-05-14T12:27:49.559Z,18.70
2019-05-14T12:30:19.742Z,18.70
2019-05-14T12:32:50.068Z,18.70
2019-05-14T12:35:19.792Z,18.70
2019-05-14T12:37:48.518Z,18.70
2019-05-14T12:40:19.373Z,18.60
2019-05-14T12:42:49.635Z,18.50
2019-05-14T12:45:19.014Z,18.40
2019-05-14T12:47:50.096Z,18.40
2019-05-14T12:50:18.269Z,18.40
2019-05-14T12:52:48.489Z,18.30
2019-05-14T12:55:19.460Z,18.30
2019-05-14T12:57:48.558Z,18.30
2019-05-14T13:00:17.372Z,18.30
2019-05-14T13:02:45.819Z,18.20
2019-05-14T13:05:14.693Z,18.20
2019-05-14T13:07:43.719Z,18.10
2019-05-14T13:10:12.571Z,18.10
2019-05-14T13:12:41.051Z,18.10
2019-05-14T13:15:10.553Z,18.10
2019-05-14T13:17:39.191Z,18.10
2019-05-14T13:20:13.809Z,18.10
2019-05-14T13:22:45.661Z,18.10
2019-05-14T13:25:10.986Z,18.10
2019-05-14T13:27:39.825Z,18.10
2019-05-14T13:30:09.875Z,18.10
2019-05-14T13:32:39.648Z,18.10
2019-05-14T13:35:13.727Z,18.20
2019-05-14T13:37:41.358Z,18.20
2019-05-14T13:40:13.619Z,18.30
2019-05-14T13:42:44.251Z,18.40
2019-05-14T13:45:11.443Z,18.40
2019-05-14T13:47:39.938Z,18.50
2019-05-14T13:50:08.854Z,18.50
2019-05-14T13:52:40.546Z,18.60
2019-05-14T13:55:09.845Z,18.70
2019-05-14T13:57:39.769Z,18.90
2019-05-14T14:00:11.715Z,19.00
2019-05-14T14:02:40.761Z,19.10
2019-05-14T14:05:09.326Z,19.30
2019-05-14T14:07:39.654Z,19.40
2019-05-14T14:10:09.355Z,19.50
2019-05-14T14:12:40.517Z,19.40
2019-05-14T14:15:09.573Z,19.40
2019-05-14T14:17:39.275Z,19.50
2019-05-14T14:20:08.962Z,19.60
2019-05-14T14:22:40.114Z,19.60
2019-05-14T14:25:09.074Z,19.70
2019-05-14T14:27:40.641Z,19.80
2019-05-14T14:30:09.361Z,19.90
2019-05-14T14:32:40.674Z,19.90
2019-05-14T14:35:08.924Z,20.00
2019-05-14T14:37:39.849Z,20.10
2019-05-14T14:40:09.912Z,20.30
2019-05-14T14:42:39.986Z,20.40
2019-05-14T14:45:09.338Z,20.40
2019-05-14T14:47:39.413Z,20.40
2019-05-14T14:50:09.841Z,20.50
2019-05-14T14:52:38.324Z,20.60
2019-05-14T14:55:07.487Z,20.70
2019-05-14T14:57:36.302Z,20.80
2019-05-14T15:00:11.409Z,20.90
2019-05-14T15:02:41.074Z,21.10
2019-05-14T15:05:14.069Z,21.30
2019-05-14T15:07:41.043Z,21.40
2019-05-14T15:10:10.345Z,21.60
2019-05-14T15:12:39.907Z,21.60
2019-05-14T15:15:09.516Z,21.70
2019-05-14T15:17:39.278Z,21.70
2019-05-14T15:20:10.449Z,21.80
2019-05-14T15:22:39.436Z,21.80
2019-05-14T15:25:09.306Z,21.70
2019-05-14T15:27:38.566Z,21.50
2019-05-14T15:30:11.685Z,21.40
2019-05-14T15:32:40.170Z,21.10
2019-05-14T15:35:10.732Z,20.90
2019-05-14T15:37:42.634Z,20.60
2019-05-14T15:40:10.545Z,20.30
2019-05-14T15:42:39.597Z,20.00
2019-05-14T15:45:09.145Z,19.80
2019-05-14T15:47:38.953Z,19.60
2019-05-14T15:50:09.350Z,19.30
2019-05-14T15:52:39.436Z,19.20
2019-05-14T15:55:09.797Z,19.00
2019-05-14T15:57:39.733Z,18.80
2019-05-14T16:00:09.325Z,18.60
2019-05-14T16:02:39.384Z,18.50
2019-05-14T16:05:09.956Z,18.30
2019-05-14T16:07:39.245Z,18.20
2019-05-14T16:10:08.738Z,18.00
2019-05-14T16:12:39.922Z,17.90
2019-05-14T16:15:08.640Z,17.70
2019-05-14T16:17:48.732Z,17.50
2019-05-14T16:20:08.982Z,17.30
2019-05-14T16:22:39.804Z,17.10
2019-05-14T16:25:09.411Z,16.90
2019-05-14T16:27:39.445Z,16.70
2019-05-14T16:30:10.394Z,16.60
2019-05-14T16:32:39.752Z,16.40
2019-05-14T16:35:09.098Z,16.20
2019-05-14T16:37:39.120Z,16.10
2019-05-14T16:40:09.192Z,16.00
2019-05-14T16:42:39.632Z,15.80
2019-05-14T16:45:08.877Z,15.80
2019-05-14T16:47:39.974Z,15.70
2019-05-14T16:50:09.648Z,15.60
2019-05-14T16:52:42.283Z,15.60
2019-05-14T16:55:22.646Z,15.50
2019-05-14T16:57:38.888Z,15.50
2019-05-14T17:00:09.685Z,15.40
2019-05-14T17:02:38.721Z,15.40
2019-05-14T17:05:09.226Z,15.20
2019-05-14T17:07:38.547Z,15.20
2019-05-14T17:10:08.530Z,15.20
2019-05-14T17:12:49.604Z,15.10
2019-05-14T17:15:09.684Z,15.20
2019-05-14T17:17:37.996Z,15.10
2019-05-14T17:20:08.583Z,15.20
2019-05-14T17:22:39.845Z,15.20
2019-05-14T17:25:10.502Z,15.20
2019-05-14T17:27:39.400Z,15.20
2019-05-14T17:30:08.977Z,15.20
2019-05-14T17:32:39.220Z,15.20
2019-05-14T17:35:08.419Z,15.20
2019-05-14T17:37:39.569Z,15.30
2019-05-14T17:40:09.343Z,15.30
2019-05-14T17:42:39.309Z,15.30
2019-05-14T17:45:09.301Z,15.30
2019-05-14T17:47:38.740Z,15.20
2019-05-14T17:50:09.342Z,15.20
2019-05-14T17:52:42.811Z,15.10
2019-05-14T17:55:11.981Z,15.00
2019-05-14T17:57:45.882Z,15.10
2019-05-14T18:00:11.017Z,15.10
2019-05-14T18:02:39.782Z,15.10
2019-05-14T18:05:09.373Z,15.10
2019-05-14T18:07:38.353Z,14.90
2019-05-14T18:10:10.685Z,14.90
2019-05-14T18:12:39.991Z,14.90
2019-05-14T18:15:08.902Z,14.90
2019-05-14T18:17:39.396Z,14.90
2019-05-14T18:20:08.969Z,14.80
2019-05-14T18:22:42.105Z,14.90
2019-05-14T18:25:08.240Z,14.80
2019-05-14T18:27:39.157Z,14.80
2019-05-14T18:30:09.197Z,14.70
2019-05-14T18:32:37.797Z,14.70
2019-05-14T18:35:06.637Z,14.70
2019-05-14T18:37:35.224Z,14.70
2019-05-14T18:40:05.974Z,14.60
2019-05-14T18:42:34.449Z,14.60
2019-05-14T18:45:03.005Z,14.50
2019-05-14T18:47:31.465Z,14.50
2019-05-14T18:50:00.114Z,14.40
2019-05-14T18:52:29.677Z,14.40
2019-05-14T18:54:58.963Z,14.40
2019-05-14T18:57:28.687Z,14.30
2019-05-14T18:59:57.413Z,14.30
2019-05-14T19:02:29.092Z,14.30
2019-05-14T19:04:57.981Z,14.30
2019-05-14T19:07:28.765Z,14.30
2019-05-14T19:09:58.671Z,14.20
2019-05-14T19:12:28.893Z,14.20
2019-05-14T19:14:58.998Z,14.20
2019-05-14T19:17:28.334Z,14.20
2019-05-14T19:19:58.918Z,14.20
2019-05-14T19:22:28.796Z,14.20
2019-05-14T19:24:58.668Z,14.20
2019-05-14T19:27:28.586Z,14.20
2019-05-14T19:29:59.149Z,14.10
2019-05-14T19:32:28.264Z,14.10
2019-05-14T19:34:56.929Z,14.10
2019-05-14T19:37:25.504Z,14.10
2019-05-14T19:39:58.711Z,14.00
2019-05-14T19:42:28.771Z,14.00
2019-05-14T19:44:59.766Z,13.90
2019-05-14T19:47:28.247Z,13.90
2019-05-14T19:49:58.163Z,13.80
2019-05-14T19:52:28.297Z,13.80
2019-05-14T19:54:56.904Z,13.70
2019-05-14T19:57:25.426Z,13.70
2019-05-14T19:59:53.891Z,13.60
2019-05-14T20:02:22.349Z,13.60
2019-05-14T20:04:50.822Z,13.60
2019-05-14T20:07:19.299Z,13.50
2019-05-14T20:09:48.324Z,13.50
2019-05-14T20:12:18.243Z,13.40
2019-05-14T20:14:48.959Z,13.40
2019-05-14T20:17:19.214Z,13.40
2019-05-14T20:19:49.216Z,13.40
2019-05-14T20:22:19.037Z,13.40
2019-05-14T20:24:48.368Z,13.40
2019-05-14T20:27:17.025Z,13.50
2019-05-14T20:29:45.520Z,13.50
2019-05-14T20:32:13.965Z,13.50
2019-05-14T20:34:42.436Z,13.50
2019-05-14T20:37:10.956Z,13.40
2019-05-14T20:39:39.502Z,13.40
2019-05-14T20:42:09.175Z,13.40
2019-05-14T20:44:38.585Z,13.40
2019-05-14T20:47:09.202Z,13.40
2019-05-14T20:49:37.998Z,13.30
2019-05-14T20:52:08.589Z,13.30
2019-05-14T20:54:36.994Z,13.20
2019-05-14T20:57:19.696Z,13.20
2019-05-14T20:59:35.770Z,13.10
2019-05-14T21:02:04.352Z,13.00
2019-05-14T21:04:32.824Z,13.00
2019-05-14T21:07:01.310Z,12.90
2019-05-14T21:09:29.760Z,12.90
2019-05-14T21:11:58.307Z,12.80
2019-05-14T21:14:26.786Z,12.70
2019-05-14T21:16:55.269Z,12.70
2019-05-14T21:19:25.340Z,12.60
2019-05-14T21:21:53.819Z,12.60
2019-05-14T21:24:22.349Z,12.60
2019-05-14T21:26:50.830Z,12.50
2019-05-14T21:29:19.310Z,12.50
2019-05-14T21:31:47.770Z,12.40
2019-05-14T21:34:16.220Z,12.40
2019-05-14T21:36:45.360Z,12.30
2019-05-14T21:39:14.370Z,12.30
2019-05-14T21:41:42.847Z,12.20
2019-05-14T21:44:11.323Z,12.20
2019-05-14T21:46:40.074Z,12.20
2019-05-14T21:49:11.042Z,12.10
2019-05-14T21:51:39.370Z,12.10
2019-05-14T21:54:09.458Z,12.10
2019-05-14T21:56:38.661Z,12.00
2019-05-14T21:59:09.547Z,12.00
2019-05-14T22:01:39.245Z,12.00
2019-05-14T22:04:11.497Z,11.90
2019-05-14T22:06:41.304Z,11.90
2019-05-14T22:09:09.136Z,11.90
2019-05-14T22:11:39.341Z,11.90
2019-05-14T22:14:08.068Z,11.90
2019-05-14T22:16:38.105Z,11.90
2019-05-14T22:19:08.555Z,11.90
2019-05-14T22:21:38.583Z,11.90
2019-05-14T22:24:07.570Z,11.90
2019-05-14T22:26:36.014Z,11.90
2019-05-14T22:29:04.636Z,11.90
2019-05-14T22:31:33.143Z,11.80
2019-05-14T22:34:01.589Z,11.80
2019-05-14T22:36:30.036Z,11.80
2019-05-14T22:38:58.533Z,11.80
2019-05-14T22:41:28.887Z,11.70
2019-05-14T22:43:59.886Z,11.70
2019-05-14T22:46:28.749Z,11.70
2019-05-14T22:48:58.631Z,11.70
2019-05-14T22:51:27.309Z,11.60
2019-05-14T22:53:55.795Z,11.60
2019-05-14T22:56:24.281Z,11.60
2019-05-14T22:58:52.731Z,11.50
2019-05-14T23:01:21.707Z,11.50
2019-05-14T23:03:50.260Z,11.50
2019-05-14T23:06:18.973Z,11.50
2019-05-14T23:08:48.675Z,11.50
2019-05-14T23:11:19.787Z,11.50
2019-05-14T23:13:48.810Z,11.50
2019-05-14T23:16:30.928Z,11.50
2019-05-14T23:18:48.722Z,11.50
2019-05-14T23:21:17.524Z,11.50
2019-05-14T23:23:46.023Z,11.40
2019-05-14T23:26:14.514Z,11.40
2019-05-14T23:28:45.831Z,11.50
2019-05-14T23:31:13.223Z,11.50
2019-05-14T23:33:41.777Z,11.40
2019-05-14T23:36:11.074Z,11.40
2019-05-14T23:38:39.731Z,11.40
2019-05-14T23:41:08.779Z,11.30
2019-05-14T23:43:39.141Z,11.30
2019-05-14T23:46:09.366Z,11.20
2019-05-14T23:48:39.176Z,11.20
2019-05-14T23:51:08.389Z,11.10
2019-05-14T23:53:39.249Z,11.10
2019-05-14T23:56:08.567Z,11.10
2019-05-14T23:58:37.657Z,11.00
